Time;durP1;ratioP1;P1;durP2;ratioP2;P2;SDS_P1;SDS_P2;PMS_P1;PMS_P2;Temp;Humidity;BMP_temperature;BMP_pressure;BME280_temperature;BME280_humidity;BME280_pressure;Samples;Min_cycle;Max_cycle;Signal;HPM_P1;HPM_P2
2023/07/15 00:01:02;;;;;;;8.23;5.40;;;17.20;99.10;;;;;;5029588;28;20022;-78
2023/07/15 00:03:28;;;;;;;6.88;5.25;;;17.20;98.50;;;;;;5029446;28;20470;-78
2023/07/15 00:05:53;;;;;;;10.68;6.20;;;17.20;96.70;;;;;;5030516;28;20074;-78
2023/07/15 00:08:19;;;;;;;7.10;6.00;;;17.20;96.20;;;;;;5029263;28;20025;-78
2023/07/15 00:10:46;;;;;;;6.88;6.20;;;17.20;96.40;;;;;;5029417;28;20061;-78
2023/07/15 00:13:17;;;;;;;8.00;5.90;;;17.20;96.30;;;;;;5029214;28;20117;-78
2023/07/15 00:15:47;;;;;;;7.15;5.38;;;17.20;97.30;;;;;;5029272;28;20025;-78
2023/07/15 00:18:14;;;;;;;6.47;5.22;;;17.20;99.70;;;;;;5029385;28;20070;-79
2023/07/15 00:20:46;;;;;;;6.05;5.25;;;17.10;99.90;;;;;;5029166;28;20108;-78
2023/07/15 00:23:22;;;;;;;7.70;5.75;;;17.10;99.90;;;;;;5030585;28;20025;-78
2023/07/15 00:25:50;;;;;;;5.75;5.20;;;17.00;99.60;;;;;;5030289;28;20033;-79
2023/07/15 00:28:16;;;;;;;7.45;5.40;;;17.00;99.20;;;;;;5029056;28;20127;-78
2023/07/15 00:30:41;;;;;;;7.25;6.20;;;16.90;99.10;;;;;;5030352;28;20061;-79
2023/07/15 00:33:14;;;;;;;6.28;5.60;;;16.90;99.30;;;;;;5029053;28;20026;-79
2023/07/15 00:35:40;;;;;;;8.13;6.30;;;16.90;99.90;;;;;;5029129;28;20475;-78
2023/07/15 00:38:06;;;;;;;9.18;6.13;;;16.90;99.90;;;;;;5028995;28;20038;-78
2023/07/15 00:40:37;;;;;;;6.13;5.53;;;16.90;99.90;;;;;;5030228;28;20505;-79
2023/07/15 00:43:40;;;;;;;8.05;5.65;;;16.90;99.90;;;;;;5028985;28;20121;-78
2023/07/15 00:46:09;;;;;;;;;;;16.80;99.90;;;;;;5030555;28;20045;-78
2023/07/15 00:48:36;;;;;;;9.63;6.47;;;16.80;99.90;;;;;;5028838;28;19916;-79
2023/07/15 00:51:02;;;;;;;6.40;5.80;;;16.80;99.90;;;;;;5029888;28;20520;-78
2023/07/15 00:53:27;;;;;;;8.35;5.32;;;16.80;99.90;;;;;;5032108;28;20022;-78
2023/07/15 00:55:53;;;;;;;6.18;5.57;;;16.70;99.90;;;;;;5032235;28;20021;-78
2023/07/15 00:58:19;;;;;;;6.35;5.72;;;16.70;99.90;;;;;;5033436;28;20022;-78
2023/07/15 01:00:44;;;;;;;6.50;5.50;;;16.70;99.90;;;;;;5032110;28;20535;-78
2023/07/15 01:03:10;;;;;;;8.35;5.95;;;16.70;99.90;;;;;;5032047;28;20108;-78
2023/07/15 01:05:36;;;;;;;7.03;6.32;;;16.60;99.90;;;;;;5033216;28;20446;-78
2023/07/15 01:08:01;;;;;;;6.53;5.70;;;16.60;99.90;;;;;;5032067;28;20463;-78
2023/07/15 01:10:27;;;;;;;6.82;6.18;;;16.50;99.90;;;;;;5032033;28;20028;-78
2023/07/15 01:12:53;;;;;;;7.45;5.70;;;16.50;99.90;;;;;;5033274;28;20021;-78
2023/07/15 01:15:18;;;;;;;6.50;5.82;;;16.50;99.90;;;;;;5033145;28;20060;-78
2023/07/15 01:17:44;;;;;;;6.13;5.07;;;16.50;99.90;;;;;;5033246;28;20018;-79
2023/07/15 01:20:10;;;;;;;8.05;5.75;;;16.50;99.90;;;;;;5031875;28;20024;-78
2023/07/15 01:22:36;;;;;;;7.30;6.40;;;16.50;99.90;;;;;;5031725;28;20030;-78
2023/07/15 01:25:05;;;;;;;6.57;5.68;;;16.40;99.90;;;;;;5031823;28;20022;-78
2023/07/15 01:27:31;;;;;;;7.45;6.20;;;16.40;99.90;;;;;;5031696;28;20033;-78
2023/07/15 01:29:56;;;;;;;6.28;5.57;;;16.30;99.90;;;;;;5031702;28;20026;-78
2023/07/15 01:32:22;;;;;;;9.95;6.68;;;16.30;99.90;;;;;;5033020;28;20021;-79
2023/07/15 01:34:47;;;;;;;7.40;5.82;;;16.10;99.90;;;;;;5031623;28;20026;-78
2023/07/15 01:37:13;;;;;;;10.15;6.32;;;16.10;99.90;;;;;;5032950;28;20031;-78
2023/07/15 01:39:38;;;;;;;6.95;6.22;;;16.10;99.90;;;;;;5031521;28;20074;-78
2023/07/15 01:42:04;;;;;;;8.25;6.88;;;16.00;99.90;;;;;;5031585;28;20021;-78
2023/07/15 01:44:30;;;;;;;6.45;5.80;;;16.00;99.90;;;;;;5032830;28;20022;-78
2023/07/15 01:46:55;;;;;;;6.68;6.03;;;15.90;99.90;;;;;;5032685;28;20152;-78
2023/07/15 01:49:21;;;;;;;6.38;5.85;;;15.90;99.90;;;;;;5031472;28;20021;-78
2023/07/15 01:51:47;;;;;;;9.90;7.00;;;15.80;99.90;;;;;;5031282;28;20125;-79
2023/07/15 01:54:12;;;;;;;8.32;6.68;;;15.90;99.90;;;;;;5032472;28;20050;-79
2023/07/15 01:56:41;;;;;;;8.00;6.78;;;15.90;99.90;;;;;;5032576;28;20094;-78
2023/07/15 01:59:07;;;;;;;7.90;7.05;;;15.80;99.90;;;;;;5031187;28;20029;-78
2023/07/15 02:01:33;;;;;;;8.18;6.63;;;15.80;99.90;;;;;;5031200;28;20029;-78
2023/07/15 02:03:59;;;;;;;7.47;6.78;;;15.80;99.90;;;;;;5031400;28;20021;-78
2023/07/15 02:06:25;;;;;;;12.43;6.63;;;15.80;99.90;;;;;;5032389;28;20030;-78
2023/07/15 02:08:51;;;;;;;7.40;6.70;;;15.70;99.90;;;;;;5031184;28;20360;-78
2023/07/15 02:11:16;;;;;;;7.57;6.22;;;15.80;99.90;;;;;;5031115;28;20081;-78
2023/07/15 02:13:42;;;;;;;8.57;7.43;;;15.70;99.90;;;;;;5032280;28;20053;-79
2023/07/15 02:16:08;;;;;;;8.55;6.97;;;15.80;99.90;;;;;;5032264;28;20406;-79
2023/07/15 02:18:33;;;;;;;8.65;7.78;;;15.70;99.90;;;;;;5031056;28;20432;-79
2023/07/15 02:20:59;;;;;;;7.75;6.80;;;15.80;99.90;;;;;;5032175;28;20094;-79
2023/07/15 02:23:24;;;;;;;7.22;6.50;;;15.70;99.90;;;;;;5032184;28;20022;-78
2023/07/15 02:25:50;;;;;;;7.40;6.15;;;15.70;99.90;;;;;;5030818;28;20029;-78
2023/07/15 02:28:15;;;;;;;7.32;6.63;;;15.60;99.90;;;;;;5032073;28;20070;-79
2023/07/15 02:30:41;;;;;;;7.43;6.70;;;15.60;99.90;;;;;;5032047;28;20026;-79
2023/07/15 02:33:07;;;;;;;7.55;6.43;;;15.60;99.90;;;;;;5030751;28;20051;-79
2023/07/15 02:35:33;;;;;;;7.82;7.07;;;15.60;99.90;;;;;;5031992;28;20436;-79
2023/07/15 02:37:59;;;;;;;7.25;6.55;;;15.60;99.90;;;;;;5031991;28;20056;-79
2023/07/15 02:40:25;;;;;;;7.60;6.90;;;15.50;99.90;;;;;;5030669;28;20491;-78
2023/07/15 02:42:52;;;;;;;7.55;6.60;;;15.50;99.90;;;;;;5030737;28;20502;-79
2023/07/15 02:45:18;;;;;;;9.15;6.97;;;15.50;99.90;;;;;;5030907;28;20040;-78
2023/07/15 02:47:43;;;;;;;9.93;7.70;;;15.40;99.90;;;;;;5030420;28;20033;-78
2023/07/15 02:50:09;;;;;;;9.07;6.75;;;15.50;99.90;;;;;;5031779;28;20471;-78
2023/07/15 02:52:37;;;;;;;7.70;7.00;;;15.40;99.90;;;;;;5031816;28;20026;-78
2023/07/15 02:55:07;;;;;;;9.85;6.95;;;15.40;99.90;;;;;;5030168;28;20109;-78
2023/07/15 02:57:33;;;;;;;11.15;6.82;;;15.40;99.90;;;;;;5031782;28;20222;-79
2023/07/15 02:59:58;;;;;;;10.93;7.60;;;15.40;99.90;;;;;;5030160;28;20033;-78
2023/07/15 03:02:24;;;;;;;10.55;8.13;;;15.40;99.90;;;;;;5030332;28;20479;-79
2023/07/15 03:04:51;;;;;;;9.07;6.82;;;15.30;99.90;;;;;;5031571;28;20037;-78
2023/07/15 03:07:17;;;;;;;9.52;6.93;;;15.30;99.90;;;;;;5030081;28;20065;-79
2023/07/15 03:09:44;;;;;;;7.20;6.50;;;15.30;99.90;;;;;;5030311;28;20036;-79
2023/07/15 03:12:11;;;;;;;8.63;7.72;;;15.40;99.90;;;;;;5031407;28;20021;-79
2023/07/15 03:14:36;;;;;;;9.75;7.53;;;15.30;99.90;;;;;;5031068;28;20040;-79
2023/07/15 03:17:02;;;;;;;10.73;7.40;;;15.40;99.90;;;;;;5030057;28;20109;-79
2023/07/15 03:19:30;;;;;;;7.63;6.85;;;15.40;99.90;;;;;;5031424;28;20387;-78
2023/07/15 03:21:59;;;;;;;9.93;6.65;;;15.40;99.90;;;;;;5031206;28;20421;-79
2023/07/15 03:24:25;;;;;;;9.15;6.93;;;15.40;99.90;;;;;;5029855;28;20033;-79
2023/07/15 03:26:52;;;;;;;8.98;6.95;;;15.40;99.90;;;;;;5031133;28;20041;-79
2023/07/15 03:29:18;;;;;;;10.57;7.05;;;15.50;99.90;;;;;;5031040;28;20417;-79
2023/07/15 03:31:44;;;;;;;7.72;6.75;;;15.50;99.90;;;;;;5031152;28;20050;-79
2023/07/15 03:34:10;;;;;;;8.13;7.30;;;15.70;99.90;;;;;;5029782;28;20070;-79
2023/07/15 03:36:35;;;;;;;7.78;6.95;;;15.80;99.90;;;;;;5029739;28;20029;-79
2023/07/15 03:39:01;;;;;;;11.93;6.95;;;16.00;99.90;;;;;;5030924;28;20415;-79
2023/07/15 03:41:26;;;;;;;8.85;6.63;;;16.20;99.90;;;;;;5030974;28;20394;-79
2023/07/15 03:43:52;;;;;;;9.57;6.75;;;16.50;99.90;;;;;;5030813;28;20025;-79
2023/07/15 03:46:17;;;;;;;9.35;6.90;;;16.60;99.90;;;;;;5030835;28;20045;-79
2023/07/15 03:48:43;;;;;;;8.70;6.90;;;16.80;99.90;;;;;;5029679;28;20370;-79
2023/07/15 03:51:09;;;;;;;9.18;6.43;;;17.00;99.90;;;;;;5031017;28;20021;-80
2023/07/15 03:53:35;;;;;;;6.68;6.07;;;17.20;99.90;;;;;;5030710;28;20404;-79
2023/07/15 03:56:01;;;;;;;6.97;6.28;;;17.30;99.90;;;;;;5030814;28;20025;-79
2023/07/15 03:58:26;;;;;;;6.65;5.95;;;17.50;99.90;;;;;;5029557;28;20071;-79
2023/07/15 04:00:52;;;;;;;7.13;5.38;;;17.70;99.90;;;;;;5030586;28;20032;-79
2023/07/15 04:03:18;;;;;;;6.28;5.63;;;17.80;99.90;;;;;;5030550;28;20022;-79
2023/07/15 04:05:44;;;;;;;7.20;5.22;;;18.00;99.90;;;;;;5029340;28;20036;-79
2023/07/15 04:08:10;;;;;;;5.75;5.20;;;18.20;99.90;;;;;;5029279;28;20025;-79
2023/07/15 04:10:36;;;;;;;6.03;5.28;;;18.30;99.90;;;;;;5030603;28;20053;-79
2023/07/15 04:13:01;;;;;;;7.78;5.80;;;18.50;99.90;;;;;;5030427;28;20064;-79
2023/07/15 04:15:30;;;;;;;6.45;5.85;;;18.70;99.90;;;;;;5030471;28;20074;-79
2023/07/15 04:17:56;;;;;;;7.07;5.90;;;18.80;98.80;;;;;;5029253;28;20025;-79
2023/07/15 04:20:21;;;;;;;7.38;5.32;;;19.00;98.30;;;;;;5030498;28;20376;-79
2023/07/15 04:22:47;;;;;;;6.57;5.68;;;19.10;97.50;;;;;;5029178;28;20038;-79
2023/07/15 04:25:12;;;;;;;7.57;5.35;;;19.30;97.00;;;;;;5029202;28;20453;-80
2023/07/15 04:27:39;;;;;;;5.88;5.28;;;19.40;95.80;;;;;;5033819;28;20034;-80
2023/07/15 04:30:05;;;;;;;6.07;5.57;;;19.50;96.30;;;;;;5033912;28;20026;-79
2023/07/15 04:32:31;;;;;;;5.63;5.22;;;19.60;95.50;;;;;;5032608;28;20025;-79
2023/07/15 04:34:56;;;;;;;5.75;4.80;;;19.60;95.40;;;;;;5032600;28;20021;-79
2023/07/15 04:37:22;;;;;;;7.63;4.97;;;19.70;97.00;;;;;;5033808;28;20029;-79
2023/07/15 04:39:48;;;;;;;6.10;5.30;;;19.90;97.60;;;;;;5033779;28;20108;-79
2023/07/15 04:42:14;;;;;;;8.02;5.38;;;20.00;96.40;;;;;;5032570;28;20044;-79
2023/07/15 04:44:39;;;;;;;5.85;5.10;;;20.10;94.30;;;;;;5032474;28;20021;-79
2023/07/15 04:47:05;;;;;;;6.00;5.47;;;20.20;90.00;;;;;;5033639;28;20406;-79
2023/07/15 04:49:31;;;;;;;8.70;5.30;;;20.30;87.90;;;;;;5033551;28;20051;-80
2023/07/15 04:51:56;;;;;;;9.18;5.53;;;20.40;90.10;;;;;;5032385;28;20018;-80
2023/07/15 04:54:22;;;;;;;6.07;5.32;;;20.50;89.70;;;;;;5032179;28;20144;-79
2023/07/15 04:56:48;;;;;;;8.13;5.43;;;20.50;85.80;;;;;;5032130;28;20035;-79
2023/07/15 04:59:14;;;;;;;6.30;5.22;;;20.60;84.10;;;;;;5032296;28;20538;-80
2023/07/15 05:01:39;;;;;;;5.68;4.80;;;20.70;82.90;;;;;;5033383;28;20486;-79
2023/07/15 05:04:05;;;;;;;5.80;5.05;;;20.80;83.50;;;;;;5033348;28;20878;-79
2023/07/15 05:06:31;;;;;;;5.45;4.97;;;20.80;82.90;;;;;;5032255;28;20029;-80
2023/07/15 05:08:57;;;;;;;4.70;4.30;;;20.80;82.70;;;;;;5032156;28;20073;-80
2023/07/15 05:11:25;;;;;;;6.82;5.35;;;20.90;83.50;;;;;;5033284;28;20416;-79
2023/07/15 05:13:51;;;;;;;5.40;4.93;;;20.90;83.60;;;;;;5033168;28;20013;-79
2023/07/15 05:16:17;;;;;;;5.63;5.13;;;20.90;84.30;;;;;;5032196;28;20041;-79
2023/07/15 05:18:43;;;;;;;5.75;5.22;;;21.00;84.30;;;;;;5031363;28;20399;-80
2023/07/15 05:21:09;;;;;;;6.65;5.47;;;21.10;83.30;;;;;;5032004;28;20026;-79
2023/07/15 05:23:34;;;;;;;7.05;4.85;;;21.10;84.50;;;;;;5031908;28;20033;-79
2023/07/15 05:26:01;;;;;;;5.70;4.80;;;21.20;84.40;;;;;;5031901;28;20395;-80
2023/07/15 05:28:32;;;;;;;5.38;4.88;;;21.20;83.80;;;;;;5031826;28;20025;-79
2023/07/15 05:31:01;;;;;;;5.63;4.80;;;21.40;84.30;;;;;;5031897;28;20104;-79
2023/07/15 05:33:26;;;;;;;7.32;4.72;;;21.50;85.90;;;;;;5033020;28;20067;-79
2023/07/15 05:35:53;;;;;;;5.32;4.72;;;21.60;80.20;;;;;;5031561;28;20439;-80
2023/07/15 05:38:22;;;;;;;6.28;4.60;;;21.80;77.70;;;;;;5031634;28;20014;-79
2023/07/15 05:40:47;;;;;;;5.72;5.15;;;21.90;78.00;;;;;;5032907;28;20021;-79
2023/07/15 05:43:13;;;;;;;5.10;4.25;;;22.00;75.80;;;;;;5032871;28;20096;-79
2023/07/15 05:45:39;;;;;;;4.70;4.30;;;22.20;75.60;;;;;;5032884;28;20102;-79
2023/07/15 05:48:05;;;;;;;4.88;4.45;;;22.30;74.40;;;;;;5031474;28;20033;-79
2023/07/15 05:50:34;;;;;;;7.32;4.50;;;22.40;73.20;;;;;;5032878;28;20021;-80
2023/07/15 05:53:00;;;;;;;5.65;4.55;;;22.50;74.10;;;;;;5031366;28;20022;-79
2023/07/15 05:55:25;;;;;;;5.72;4.13;;;22.60;73.50;;;;;;5032707;28;20061;-80
2023/07/15 05:57:51;;;;;;;5.10;4.60;;;22.80;74.50;;;;;;5032421;28;20026;-80
2023/07/15 06:00:16;;;;;;;9.45;4.85;;;22.90;74.40;;;;;;5031287;28;20026;-79
2023/07/15 06:02:42;;;;;;;4.88;4.47;;;23.00;73.30;;;;;;5030998;28;20025;-81
2023/07/15 06:05:09;;;;;;;5.13;4.53;;;23.10;74.00;;;;;;5031047;28;20028;-81
2023/07/15 06:07:35;;;;;;;5.10;4.68;;;23.30;74.20;;;;;;5032496;28;20102;-81
2023/07/15 06:10:01;;;;;;;4.68;4.22;;;23.30;72.70;;;;;;5032232;28;20053;-81
2023/07/15 06:12:27;;;;;;;6.43;5.00;;;23.50;73.60;;;;;;5032209;28;20022;-81
2023/07/15 06:14:52;;;;;;;5.78;4.03;;;23.70;73.00;;;;;;5030602;28;20024;-81
2023/07/15 06:17:18;;;;;;;5.60;5.10;;;23.80;72.00;;;;;;5030650;28;20075;-81
2023/07/15 06:19:44;;;;;;;6.13;4.78;;;23.90;70.70;;;;;;5031879;28;20026;-81
2023/07/15 06:22:09;;;;;;;6.25;4.72;;;24.10;70.60;;;;;;5022200;28;20018;-81
2023/07/15 06:24:35;;;;;;;4.15;3.85;;;24.20;71.90;;;;;;5021260;28;20084;-81
2023/07/15 06:27:01;;;;;;;4.85;4.43;;;24.20;70.10;;;;;;5024369;28;20040;-81
2023/07/15 06:29:27;;;;;;;4.85;4.43;;;24.40;70.10;;;;;;5021195;28;20029;-81
2023/07/15 06:31:53;;;;;;;7.80;4.30;;;24.50;69.60;;;;;;5019269;28;20022;-81
2023/07/15 06:34:19;;;;;;;5.03;4.30;;;24.60;68.70;;;;;;5022367;28;20075;-81
2023/07/15 06:36:45;;;;;;;4.68;4.28;;;24.80;68.90;;;;;;5014356;28;20025;-81
2023/07/15 06:39:11;;;;;;;13.75;4.70;;;24.80;67.10;;;;;;5010667;28;20026;-80
2023/07/15 06:41:37;;;;;;;5.35;4.13;;;25.00;66.80;;;;;;5011836;28;20026;-80
2023/07/15 06:44:02;;;;;;;5.05;4.07;;;25.10;67.90;;;;;;5011745;28;20486;-81
2023/07/15 06:46:28;;;;;;;3.97;3.65;;;25.30;66.70;;;;;;5014250;28;20164;-83
2023/07/15 06:48:55;;;;;;;4.75;4.30;;;25.40;66.70;;;;;;5023824;28;20494;-81
2023/07/15 06:51:22;;;;;;;4.32;3.33;;;25.50;64.10;;;;;;5030602;28;20064;-82
2023/07/15 06:53:47;;;;;;;3.63;3.33;;;25.60;64.20;;;;;;5031152;28;20046;-82
2023/07/15 06:56:13;;;;;;;5.65;2.67;;;25.70;62.50;;;;;;5042491;27;20040;-81
2023/07/15 06:58:38;;;;;;;5.13;2.75;;;25.80;60.70;;;;;;5038826;27;20023;-82
2023/07/15 07:01:04;;;;;;;5.32;2.88;;;25.90;60.40;;;;;;5069363;27;20390;-81
2023/07/15 07:03:30;;;;;;;5.45;2.90;;;26.00;59.40;;;;;;5058636;27;20079;-81
2023/07/15 07:05:56;;;;;;;4.97;3.15;;;26.10;58.90;;;;;;5022136;28;20030;-81
2023/07/15 07:08:22;;;;;;;4.93;3.10;;;26.20;58.10;;;;;;5022913;28;20120;-81
2023/07/15 07:10:51;;;;;;;4.90;3.45;;;26.10;57.80;;;;;;5020461;27;20049;-80
2023/07/15 07:13:16;;;;;;;4.55;3.17;;;26.00;57.20;;;;;;5026279;27;20047;-81
2023/07/15 07:15:42;;;;;;;7.25;3.00;;;26.10;57.60;;;;;;5022810;28;20042;-81
2023/07/15 07:18:07;;;;;;;3.92;3.08;;;26.20;58.40;;;;;;5033736;27;20022;-81
2023/07/15 07:20:33;;;;;;;5.07;3.15;;;26.40;57.50;;;;;;5021460;28;20498;-81
2023/07/15 07:22:58;;;;;;;7.72;3.50;;;26.50;57.20;;;;;;5017521;28;20018;-81
2023/07/15 07:25:24;;;;;;;5.43;2.97;;;26.80;57.80;;;;;;5015595;28;20025;-81
2023/07/15 07:27:50;;;;;;;3.65;3.13;;;26.80;58.10;;;;;;5016219;28;20029;-82
2023/07/15 07:30:16;;;;;;;6.03;3.00;;;26.70;56.70;;;;;;5023262;28;20066;-81
2023/07/15 07:32:42;;;;;;;4.13;2.75;;;26.80;56.10;;;;;;5017969;28;20368;-82
2023/07/15 07:35:08;;;;;;;5.35;3.05;;;26.90;56.30;;;;;;5027592;27;20025;-82
2023/07/15 07:37:33;;;;;;;8.02;3.10;;;27.10;57.30;;;;;;5016277;28;20736;-82
2023/07/15 07:39:59;;;;;;;5.35;2.97;;;27.00;56.20;;;;;;5029956;28;20041;-82
2023/07/15 07:42:24;;;;;;;5.78;2.92;;;27.00;55.70;;;;;;5030959;28;20061;-82
2023/07/15 07:44:50;;;;;;;4.32;2.95;;;27.10;55.40;;;;;;5030835;28;20025;-82
2023/07/15 07:47:16;;;;;;;6.47;2.97;;;27.20;55.90;;;;;;5029634;28;20033;-81
2023/07/15 07:49:41;;;;;;;3.95;3.50;;;27.20;55.30;;;;;;5030813;28;20028;-82
2023/07/15 07:52:07;;;;;;;4.95;3.13;;;27.30;54.50;;;;;;5030128;28;20096;-82
2023/07/15 07:54:33;;;;;;;4.72;3.25;;;27.20;55.00;;;;;;5023096;28;20053;-82
2023/07/15 07:56:58;;;;;;;6.55;3.10;;;27.30;55.10;;;;;;5011270;28;20025;-82
2023/07/15 07:59:24;;;;;;;4.00;3.20;;;27.30;55.60;;;;;;5009560;28;20059;-82
2023/07/15 08:01:50;;;;;;;5.28;2.95;;;27.30;54.30;;;;;;5008628;28;20058;-82
2023/07/15 08:04:16;;;;;;;3.95;3.05;;;27.30;55.00;;;;;;5114270;27;20380;-82
2023/07/15 08:06:41;;;;;;;4.60;3.22;;;27.40;54.80;;;;;;5133212;27;20038;-81
2023/07/15 08:09:07;;;;;;;5.82;4.30;;;27.60;55.70;;;;;;5134413;27;20031;-82
2023/07/15 08:11:33;;;;;;;12.07;4.55;;;27.60;55.10;;;;;;5126146;27;20477;-82
2023/07/15 08:13:58;;;;;;;5.85;2.85;;;27.60;55.70;;;;;;5018156;28;20028;-83
2023/07/15 08:16:33;;;;;;;5.15;3.35;;;27.80;54.60;;;;;;5019422;28;20429;-82
2023/07/15 08:19:00;;;;;;;4.07;3.42;;;27.80;54.30;;;;;;5019428;28;20051;-82
2023/07/15 08:21:27;;;;;;;4.25;3.00;;;27.80;54.40;;;;;;5021980;28;20384;-81
2023/07/15 08:23:56;;;;;;;3.38;2.72;;;27.90;53.40;;;;;;5017750;28;20018;-81
2023/07/15 08:26:22;;;;;;;5.50;5.00;;;28.20;54.90;;;;;;5035849;28;20035;-82
2023/07/15 08:28:48;;;;;;;10.38;7.13;;;28.30;55.30;;;;;;5034564;28;20041;-81
2023/07/15 08:31:14;;;;;;;12.75;8.65;;;28.20;54.70;;;;;;5019094;28;20426;-82
2023/07/15 08:33:40;;;;;;;6.28;4.05;;;28.10;54.70;;;;;;5020291;28;20022;-82
2023/07/15 08:36:06;;;;;;;10.68;7.53;;;28.20;53.60;;;;;;5019343;28;20490;-82
2023/07/15 08:38:31;;;;;;;18.15;11.45;;;28.20;54.80;;;;;;5026072;28;20022;-82
2023/07/15 08:40:59;;;;;;;7.10;6.05;;;28.20;53.90;;;;;;5025268;28;20131;-82
2023/07/15 08:43:25;;;;;;;11.60;6.18;;;28.40;54.50;;;;;;5017853;28;20022;-82
2023/07/15 08:45:53;;;;;;;12.95;8.20;;;28.70;54.40;;;;;;5023711;28;20102;-81
2023/07/15 08:48:18;;;;;;;6.90;2.97;;;28.70;53.70;;;;;;5063992;28;20027;-82
2023/07/15 08:50:45;;;;;;;5.13;2.63;;;28.70;53.30;;;;;;5025939;28;20044;-81
2023/07/15 08:53:14;;;;;;;4.43;3.10;;;28.40;52.30;;;;;;5022665;28;20402;-81
2023/07/15 08:55:40;;;;;;;3.38;2.88;;;28.20;52.50;;;;;;5011287;28;20125;-81
2023/07/15 08:58:07;;;;;;;6.40;4.28;;;28.40;51.50;;;;;;5020544;28;20132;-81
2023/07/15 09:00:32;;;;;;;6.78;3.65;;;28.60;52.20;;;;;;5013366;28;20014;-82
2023/07/15 09:02:58;;;;;;;4.22;3.28;;;28.80;52.30;;;;;;5017770;28;20022;-82
2023/07/15 09:05:24;;;;;;;4.75;3.30;;;28.70;52.20;;;;;;5016209;28;20038;-81
2023/07/15 09:07:57;;;;;;;3.30;3.00;;;28.60;51.30;;;;;;5018515;28;20029;-81
2023/07/15 09:10:24;;;;;;;7.55;3.38;;;28.80;51.40;;;;;;5018505;28;20026;-82
2023/07/15 09:12:54;;;;;;;3.30;2.95;;;28.90;50.80;;;;;;5014871;28;20506;-82
2023/07/15 09:15:20;;;;;;;4.40;3.45;;;28.90;51.40;;;;;;5019834;28;20502;-83
2023/07/15 09:17:57;;;;;;;3.75;2.80;;;29.00;52.90;;;;;;5023519;28;20491;-82
2023/07/15 09:20:25;;;;;;;4.35;3.78;;;29.00;51.70;;;;;;5023237;28;20060;-82
2023/07/15 09:22:52;;;;;;;5.03;3.10;;;29.10;51.90;;;;;;5020318;28;20051;-82
2023/07/15 09:25:22;;;;;;;4.35;3.40;;;29.10;53.00;;;;;;5022582;28;20112;-82
2023/07/15 09:27:48;;;;;;;3.75;2.95;;;29.10;50.90;;;;;;5021603;28;20027;-82
2023/07/15 09:30:14;;;;;;;3.55;2.92;;;29.30;50.30;;;;;;5022012;28;20509;-81
2023/07/15 09:32:40;;;;;;;4.03;3.10;;;29.30;50.50;;;;;;5023359;28;20026;-81
2023/07/15 09:35:06;;;;;;;6.50;3.28;;;29.10;48.90;;;;;;5021164;28;20041;-81
2023/07/15 09:37:33;;;;;;;5.15;3.10;;;29.30;49.90;;;;;;5025320;28;20526;-81
2023/07/15 09:40:00;;;;;;;3.45;3.10;;;29.20;50.30;;;;;;5026643;28;20021;-82
2023/07/15 09:42:28;;;;;;;5.40;2.35;;;29.30;50.40;;;;;;5021833;28;20034;-82
2023/07/15 09:44:54;;;;;;;3.42;2.30;;;29.50;48.70;;;;;;5015244;28;20475;-82
2023/07/15 09:47:23;;;;;;;3.90;2.63;;;29.60;48.80;;;;;;5011302;28;20039;-83
2023/07/15 09:49:48;;;;;;;3.53;2.58;;;29.70;49.30;;;;;;5010564;28;20100;-82
2023/07/15 09:52:15;;;;;;;2.88;2.67;;;29.70;49.00;;;;;;5010299;28;20101;-82
2023/07/15 09:54:42;;;;;;;2.72;2.53;;;29.70;49.00;;;;;;5012444;28;20050;-82
2023/07/15 09:57:15;;;;;;;4.07;2.65;;;29.60;48.60;;;;;;5011066;28;20068;-82
2023/07/15 09:59:48;;;;;;;4.57;3.20;;;29.50;50.40;;;;;;5009528;28;20514;-82
2023/07/15 10:02:18;;;;;;;3.67;3.38;;;29.20;50.10;;;;;;5009451;28;20358;-81
2023/07/15 10:04:45;;;;;;;3.60;2.88;;;29.30;50.30;;;;;;5010064;28;20031;-81
2023/07/15 10:07:12;;;;;;;3.45;3.15;;;29.30;51.60;;;;;;5009556;28;20026;-82
2023/07/15 10:09:38;;;;;;;3.20;2.70;;;29.00;51.80;;;;;;5010629;28;20030;-81
2023/07/15 10:12:05;;;;;;;4.35;3.17;;;29.00;53.20;;;;;;5010850;28;20022;-81
2023/07/15 10:14:32;;;;;;;3.20;2.95;;;29.30;52.40;;;;;;5011567;28;20018;-82
2023/07/15 10:17:17;;;;;;;3.20;2.90;;;29.10;51.60;;;;;;5012676;28;20029;-81
2023/07/15 10:20:01;;;;;;;3.78;3.47;;;28.90;51.30;;;;;;5011604;28;20418;-81
2023/07/15 10:22:33;;;;;;;4.10;3.40;;;28.80;52.00;;;;;;5013077;28;20026;-82
2023/07/15 10:25:01;;;;;;;4.10;2.85;;;29.10;52.90;;;;;;5011798;28;20018;-81
2023/07/15 10:27:28;;;;;;;4.50;3.30;;;29.30;52.90;;;;;;5012661;28;20033;-81
2023/07/15 10:30:23;;;;;;;7.35;3.22;;;29.80;52.40;;;;;;5011286;28;20018;-81
2023/07/15 10:33:01;;;;;;;3.55;2.83;;;30.00;51.50;;;;;;5011316;28;20049;-81
2023/07/15 10:35:28;;;;;;;3.92;3.20;;;29.90;50.40;;;;;;5011193;28;20029;-81
2023/07/15 10:37:55;;;;;;;3.72;2.70;;;29.70;50.00;;;;;;5011188;28;20494;-81
2023/07/15 10:40:59;;;;;;;2.90;2.60;;;29.30;49.70;;;;;;5011226;28;20026;-81
2023/07/15 10:43:34;;;;;;;3.47;2.60;;;29.50;50.70;;;;;;5012732;28;20018;-81
2023/07/15 10:46:05;;;;;;;3.13;2.55;;;29.60;50.70;;;;;;5011013;28;20033;-81
2023/07/15 10:48:32;;;;;;;3.38;3.08;;;29.90;49.90;;;;;;5011105;28;20025;-81
2023/07/15 10:51:11;;;;;;;5.53;3.85;;;29.60;48.70;;;;;;5012256;28;20029;-81
2023/07/15 10:53:37;;;;;;;4.45;3.78;;;29.40;49.40;;;;;;5010574;28;20049;-81
2023/07/15 10:56:09;;;;;;;3.13;2.80;;;29.40;50.10;;;;;;5012119;28;20100;-81
2023/07/15 10:58:36;;;;;;;3.78;3.03;;;29.60;49.90;;;;;;5010906;28;20391;-81
2023/07/15 11:01:09;;;;;;;5.88;3.53;;;29.70;48.90;;;;;;5011049;28;20018;-81
2023/07/15 11:03:41;;;;;;;3.60;2.85;;;29.60;47.70;;;;;;5012006;28;20111;-81
2023/07/15 11:06:07;;;;;;;4.15;2.70;;;29.90;48.60;;;;;;5010707;28;20028;-81
2023/07/15 11:08:33;;;;;;;2.90;2.30;;;30.10;48.20;;;;;;5011859;28;20477;-81
2023/07/15 11:11:01;;;;;;;5.32;2.80;;;30.40;48.50;;;;;;5012047;28;20022;-81
2023/07/15 11:13:27;;;;;;;4.13;2.95;;;30.50;48.80;;;;;;5012005;28;20022;-81
2023/07/15 11:15:54;;;;;;;4.15;2.95;;;30.40;46.20;;;;;;5011733;28;20412;-81
2023/07/15 11:18:22;;;;;;;3.17;2.83;;;30.40;46.80;;;;;;5010613;28;20072;-81
2023/07/15 11:20:49;;;;;;;4.15;3.13;;;30.70;47.70;;;;;;5010599;28;20053;-81
2023/07/15 11:23:16;;;;;;;3.97;2.72;;;30.70;46.80;;;;;;5012093;28;20022;-81
2023/07/15 11:25:41;;;;;;;4.03;2.25;;;30.90;45.40;;;;;;5010750;28;20051;-81
2023/07/15 11:28:08;;;;;;;3.72;2.58;;;31.00;44.70;;;;;;5011639;28;20029;-81
2023/07/15 11:30:48;;;;;;;3.85;2.85;;;31.00;45.00;;;;;;5011711;28;20433;-81
2023/07/15 11:33:15;;;;;;;2.33;2.10;;;31.10;45.80;;;;;;5011730;28;20086;-81
2023/07/15 11:35:41;;;;;;;3.20;3.00;;;31.20;45.80;;;;;;5010422;28;20395;-81
2023/07/15 11:38:10;;;;;;;4.38;2.83;;;31.30;45.70;;;;;;5011502;28;20041;-81
2023/07/15 11:40:52;;;;;;;3.50;2.45;;;31.20;45.70;;;;;;5010219;28;20026;-81
2023/07/15 11:43:18;;;;;;;;;;;31.10;43.10;;;;;;5010807;28;20030;-81
2023/07/15 11:45:44;;;;;;;4.38;2.63;;;31.10;43.10;;;;;;5010408;28;19906;-81
2023/07/15 11:48:10;;;;;;;4.38;2.00;;;31.00;44.50;;;;;;5010227;28;20385;-81
2023/07/15 11:50:36;;;;;;;2.88;2.53;;;31.10;43.50;;;;;;5011413;28;20033;-81
2023/07/15 11:53:02;;;;;;;2.47;2.33;;;31.00;44.20;;;;;;5010041;28;20026;-81
2023/07/15 11:55:28;;;;;;;3.03;2.50;;;31.10;45.50;;;;;;5011355;28;20054;-81
2023/07/15 11:57:54;;;;;;;2.88;2.35;;;31.30;45.90;;;;;;5010027;28;20045;-81
2023/07/15 12:00:28;;;;;;;3.30;2.58;;;31.50;43.60;;;;;;5010017;28;20464;-81
2023/07/15 12:02:54;;;;;;;2.50;2.30;;;31.70;44.50;;;;;;5011282;28;20026;-81
2023/07/15 12:05:19;;;;;;;2.67;2.03;;;31.70;42.70;;;;;;5009923;28;20368;-81
2023/07/15 12:07:52;;;;;;;3.10;2.38;;;31.70;43.20;;;;;;5011105;28;20026;-81
2023/07/15 12:10:19;;;;;;;2.50;1.90;;;31.70;44.10;;;;;;5009983;28;20037;-81
2023/07/15 12:12:46;;;;;;;2.67;2.47;;;31.70;42.20;;;;;;5011091;28;20410;-81
2023/07/15 12:15:16;;;;;;;2.88;2.40;;;31.70;40.90;;;;;;5009887;28;20030;-81
2023/07/15 12:17:43;;;;;;;2.80;1.88;;;31.50;42.10;;;;;;5011140;28;20044;-81
2023/07/15 12:20:10;;;;;;;2.22;2.03;;;31.40;40.00;;;;;;5010903;28;20080;-81
2023/07/15 12:22:35;;;;;;;1.90;1.80;;;31.30;39.70;;;;;;5011105;28;20022;-81
2023/07/15 12:25:02;;;;;;;4.90;2.33;;;31.40;40.60;;;;;;5010882;28;20357;-81
2023/07/15 12:27:28;;;;;;;2.85;2.33;;;31.50;40.00;;;;;;5010825;28;20079;-81
2023/07/15 12:29:54;;;;;;;3.47;2.55;;;31.50;41.00;;;;;;5010923;28;20097;-82
2023/07/15 12:32:19;;;;;;;2.67;2.00;;;31.60;41.50;;;;;;5009528;28;20432;-81
2023/07/15 12:34:45;;;;;;;4.30;2.95;;;31.80;42.00;;;;;;5009348;28;20494;-81
2023/07/15 12:37:11;;;;;;;6.22;2.30;;;31.50;41.40;;;;;;5011728;28;20102;-81
2023/07/15 12:39:36;;;;;;;3.15;2.50;;;31.60;41.60;;;;;;5017205;28;20040;-81
2023/07/15 12:42:02;;;;;;;3.45;2.22;;;31.50;40.00;;;;;;5020110;28;20018;-81
2023/07/15 12:44:28;;;;;;;2.17;1.98;;;31.50;40.70;;;;;;5022806;28;20045;-81
2023/07/15 12:46:53;;;;;;;2.50;2.30;;;31.60;41.30;;;;;;5020457;28;20033;-81